Search for airport 
image banner adimage banner adimage banner ad
image banner ad

5CL0 - Grupe Ranch

Located in Mariposa, United States

ICAO - 5CL0, IATA -

Data provided by Airmate  

General information

Coordinates: N37°20'26" W119°51'44"
Elevation is 1625 feet MSL.
Magnetic variation is 15° East
View others Airports in California

Operational data

Special qualification required
Current time UTC:
Current local time:
Weather at : KMAE - Madera Muni ( 45 km )
METAR: KMAE 210953Z AUTO 32006KT 10SM CLR 20/12 A2979 RMK AO2 SLP085 T02000117
View NOTAMs / SUP AIP / TFR affecting this airport [VIEW]
Communications frequencies: [VIEW]

Runways:

RWY identifierQFULength (ft)Width (ft)SurfaceLDA (ft)
09280050ASPH
27280050ASPH

Airport contact information

Address: Mariposa United States

Satellite view of 5CL0